Terminal Aerodrome Forecast
Issued by NWS Wilmington, OH

Home | Current Version | Previous Version | Text Only | Print | Product List | Glossary On
Versions: 1 2 3 4 5 6 7 8 9 10 11 12 13 14 15 16 17 18 19 20 21 22 23 24
000
FTUS41 KILN 222340
TAFCVG
TAF
KCVG 222340Z 2300/2406 19004KT P6SM OVC025
      TEMPO 2300/2302 BKN035
     FM230600 20004KT 4SM BR OVC015
     FM230900 20004KT 4SM BR VCSH OVC015
     FM231500 21007KT P6SM OVC007
     FM231700 21006KT P6SM BKN020
     FM232300 15005KT P6SM BKN040
     FM240300 16006KT P6SM SCT040=

USA.gov is the U.S. government's official web portal to all federal, state and local government web resources and services.